Time;durP1;ratioP1;P1;durP2;ratioP2;P2;SDS_P1;SDS_P2;PMS_P1;PMS_P2;Temp;Humidity;BMP_temperature;BMP_pressure;BME280_temperature;BME280_humidity;BME280_pressure;Samples;Min_cycle;Max_cycle;Signal;HPM_P1;HPM_P2
2022/04/06 00:01:52;;;;;;;9.47;7.33;;;7.30;99.90;;;;;;5046311;28;20528;-68
2022/04/06 00:04:41;;;;;;;8.67;6.90;;;7.40;99.90;;;;;;5043814;28;21663;-68
2022/04/06 00:07:29;;;;;;;7.50;6.43;;;7.40;99.90;;;;;;5039865;28;20447;-69
2022/04/06 00:10:17;;;;;;;7.47;6.17;;;7.50;99.90;;;;;;5041909;28;20497;-68
2022/04/06 00:13:05;;;;;;;7.80;5.57;;;7.50;99.90;;;;;;5037449;28;20511;-68
2022/04/06 00:15:53;;;;;;;6.70;5.83;;;7.60;99.90;;;;;;5042315;28;20831;-68
2022/04/06 00:18:43;;;;;;;5.93;5.23;;;7.60;99.90;;;;;;5040686;28;20800;-69
2022/04/06 00:21:31;;;;;;;7.67;6.13;;;7.70;99.90;;;;;;5043647;28;20455;-69
2022/04/06 00:24:19;;;;;;;5.93;5.33;;;7.80;99.90;;;;;;5039157;28;20458;-68
2022/04/06 00:27:07;;;;;;;7.47;6.70;;;7.80;99.90;;;;;;5038365;28;20512;-68
2022/04/06 00:29:57;;;;;;;6.50;5.77;;;7.90;99.90;;;;;;5041503;28;20532;-68
2022/04/06 00:32:45;;;;;;;7.20;6.10;;;7.90;99.90;;;;;;5039725;28;20489;-68
2022/04/06 00:35:35;;;;;;;6.30;5.67;;;8.00;99.90;;;;;;5038566;28;20499;-69
2022/04/06 00:38:23;;;;;;;6.50;5.77;;;8.00;99.90;;;;;;5039537;28;20955;-68
2022/04/06 00:41:11;;;;;;;6.17;5.57;;;8.10;99.90;;;;;;5036261;28;20888;-68
2022/04/06 00:44:13;;;;;;;6.87;5.87;;;8.10;99.90;;;;;;5038442;28;20667;-68
2022/04/06 00:47:02;;;;;;;6.80;5.90;;;8.10;99.90;;;;;;5040699;28;20483;-68
2022/04/06 00:49:51;;;;;;;6.13;5.53;;;8.10;99.90;;;;;;5042355;28;21052;-69
2022/04/06 00:52:40;;;;;;;6.43;5.57;;;8.20;99.90;;;;;;5047764;28;20464;-68
2022/04/06 00:55:31;;;;;;;6.77;5.87;;;8.20;99.90;;;;;;5045626;28;20463;-70
2022/04/06 00:58:19;;;;;;;6.70;5.97;;;8.20;99.90;;;;;;5047420;28;20983;-68
2022/04/06 01:01:07;;;;;;;8.17;6.70;;;8.20;99.90;;;;;;5038368;28;21001;-69
2022/04/06 01:03:56;;;;;;;6.90;6.00;;;8.20;99.90;;;;;;5044038;28;20528;-68
2022/04/06 01:06:45;;;;;;;6.50;5.87;;;8.20;99.90;;;;;;5042478;28;20487;-68
2022/04/06 01:09:35;;;;;;;9.23;5.67;;;8.30;99.90;;;;;;5045842;28;20553;-69
2022/04/06 01:12:25;;;;;;;6.57;5.87;;;8.30;99.90;;;;;;5036192;28;20494;-69
2022/04/06 01:15:13;;;;;;;6.17;5.57;;;8.30;99.90;;;;;;5037129;28;20993;-68
2022/04/06 01:18:02;;;;;;;5.60;5.00;;;8.30;99.90;;;;;;5046932;28;20454;-69
2022/04/06 01:20:50;;;;;;;6.30;5.53;;;8.30;99.90;;;;;;5041439;28;20458;-68
2022/04/06 01:23:42;;;;;;;6.37;5.77;;;8.30;99.90;;;;;;5041381;28;20458;-69
2022/04/06 01:26:30;;;;;;;5.93;5.33;;;8.30;99.90;;;;;;5041183;28;20569;-68
2022/04/06 01:29:18;;;;;;;5.93;4.97;;;8.30;99.90;;;;;;5047035;28;20949;-68
2022/04/06 01:32:11;;;;;;;6.17;4.77;;;8.30;99.90;;;;;;5058415;28;20534;-68
2022/04/06 01:35:00;;;;;;;7.07;5.03;;;8.30;99.90;;;;;;5056681;28;20459;-69
2022/04/06 01:37:48;;;;;;;6.00;5.50;;;8.30;99.90;;;;;;5059103;28;20458;-68
2022/04/06 01:40:37;;;;;;;5.03;4.63;;;8.40;99.90;;;;;;5045877;28;21029;-69
2022/04/06 01:43:26;;;;;;;5.83;4.57;;;8.40;99.90;;;;;;5039799;28;21732;-69
2022/04/06 01:46:14;;;;;;;5.13;4.73;;;8.40;99.90;;;;;;5047621;28;20485;-68
2022/04/06 01:52:15;;;;;;;5.70;5.10;;;8.40;99.90;;;;;;5043746;28;20607;-69
2022/04/06 01:55:05;;;;;;;6.50;4.73;;;8.40;99.90;;;;;;5041735;28;20482;-68
2022/04/06 01:57:56;;;;;;;5.33;4.80;;;8.40;99.90;;;;;;5042640;28;20458;-68
2022/04/06 02:00:44;;;;;;;4.90;4.40;;;8.40;99.90;;;;;;5042718;28;20508;-69
2022/04/06 02:03:32;;;;;;;4.97;4.27;;;8.40;99.90;;;;;;5040786;28;20442;-68
2022/04/06 02:06:21;;;;;;;5.30;4.80;;;8.40;99.90;;;;;;5044326;28;20563;-68
2022/04/06 02:09:10;;;;;;;4.40;4.00;;;8.40;99.90;;;;;;5041824;28;20447;-68
2022/04/06 02:11:59;;;;;;;5.33;4.37;;;8.40;99.90;;;;;;5041970;28;20472;-68
2022/04/06 02:14:49;;;;;;;4.83;4.40;;;8.40;99.90;;;;;;5033896;28;20450;-68
2022/04/06 02:17:39;;;;;;;4.60;4.20;;;8.40;99.90;;;;;;5045967;28;20446;-68
2022/04/06 02:20:27;;;;;;;4.33;3.93;;;8.40;99.90;;;;;;5042730;28;20508;-68
2022/04/06 02:23:15;;;;;;;4.63;4.00;;;8.40;99.90;;;;;;5041947;28;20519;-69
2022/04/06 02:26:03;;;;;;;4.93;4.13;;;8.40;99.90;;;;;;5039197;28;20479;-68
2022/04/06 02:28:51;;;;;;;4.53;3.80;;;8.40;99.90;;;;;;5042722;28;20541;-68
2022/04/06 02:31:41;;;;;;;5.37;4.10;;;8.40;99.90;;;;;;5034332;28;20528;-68
2022/04/06 02:34:29;;;;;;;4.90;4.40;;;8.40;99.90;;;;;;5042112;28;20458;-68
2022/04/06 02:37:17;;;;;;;4.40;4.00;;;8.40;99.90;;;;;;5055833;23;20549;-67
2022/04/06 02:40:06;;;;;;;5.33;4.20;;;8.40;99.90;;;;;;5039409;28;20700;-68
2022/04/06 02:42:54;;;;;;;4.73;3.90;;;8.40;99.90;;;;;;5040860;28;20595;-68
2022/04/06 02:45:42;;;;;;;4.70;4.13;;;8.40;99.90;;;;;;5042511;28;20969;-68
2022/04/06 02:48:32;;;;;;;4.27;3.87;;;8.40;99.90;;;;;;5060849;28;20497;-68
2022/04/06 02:51:20;;;;;;;7.10;4.37;;;8.40;99.90;;;;;;5062053;28;20587;-68
2022/04/06 02:54:08;;;;;;;4.80;4.37;;;8.30;99.90;;;;;;5061931;28;20474;-69
2022/04/06 02:56:56;;;;;;;5.87;4.40;;;8.40;99.90;;;;;;5066626;28;20465;-68
2022/04/06 02:59:45;;;;;;;6.53;5.33;;;8.30;99.90;;;;;;5058941;28;20481;-68
2022/04/06 03:02:33;;;;;;;5.00;4.50;;;8.30;99.90;;;;;;5064856;28;20481;-69
2022/04/06 03:05:24;;;;;;;6.63;5.27;;;8.30;99.90;;;;;;5059573;28;20584;-68
2022/04/06 03:08:13;;;;;;;6.53;5.23;;;8.30;99.90;;;;;;5060557;28;20978;-69
2022/04/06 03:11:01;;;;;;;9.00;7.10;;;8.30;99.90;;;;;;5062663;28;20960;-69
2022/04/06 03:13:50;;;;;;;6.70;5.97;;;8.30;99.90;;;;;;5060789;28;20964;-68
2022/04/06 03:16:38;;;;;;;7.63;6.93;;;8.30;99.90;;;;;;5062361;28;20552;-68
2022/04/06 03:19:27;;;;;;;9.07;7.77;;;8.30;99.90;;;;;;5064369;28;20944;-68
2022/04/06 03:22:17;;;;;;;9.70;7.70;;;8.30;99.90;;;;;;5065454;28;20470;-68
2022/04/06 03:25:07;;;;;;;10.03;8.10;;;8.30;99.90;;;;;;5060851;28;20533;-68
2022/04/06 03:27:55;;;;;;;8.97;8.00;;;8.30;99.90;;;;;;5064199;28;20625;-68
2022/04/06 03:30:44;;;;;;;11.63;8.63;;;8.30;99.90;;;;;;5061704;28;20475;-68
2022/04/06 03:33:32;;;;;;;9.83;8.30;;;8.30;99.90;;;;;;5061610;28;20582;-68
2022/04/06 03:36:20;;;;;;;10.70;8.30;;;8.30;99.90;;;;;;5053771;28;20640;-68
2022/04/06 03:39:10;;;;;;;12.53;9.93;;;8.40;99.90;;;;;;5040033;28;22411;-68
2022/04/06 03:41:58;;;;;;;12.40;9.27;;;8.40;99.90;;;;;;5039204;28;20438;-68
2022/04/06 03:44:46;;;;;;;14.40;9.60;;;8.40;99.90;;;;;;5043725;28;20462;-69
2022/04/06 03:47:36;;;;;;;11.70;9.73;;;8.40;99.90;;;;;;5044470;28;21280;-68
2022/04/06 03:50:24;;;;;;;10.33;9.03;;;8.40;99.90;;;;;;5045866;28;20447;-67
2022/04/06 03:53:12;;;;;;;13.77;10.47;;;8.40;99.90;;;;;;5035779;28;20450;-67
2022/04/06 03:56:01;;;;;;;13.03;10.50;;;8.40;99.90;;;;;;5041648;28;20512;-66
2022/04/06 03:58:50;;;;;;;13.20;11.00;;;8.40;99.90;;;;;;5039450;28;20455;-68
2022/04/06 04:01:38;;;;;;;16.37;11.70;;;8.40;99.90;;;;;;5040793;28;20459;-68
2022/04/06 04:04:28;;;;;;;13.47;10.97;;;8.40;99.90;;;;;;5045775;28;20765;-68
2022/04/06 04:07:20;;;;;;;14.17;11.50;;;8.40;99.90;;;;;;5039548;28;20510;-68
2022/04/06 04:10:10;;;;;;;16.37;11.67;;;8.40;99.90;;;;;;5038031;28;20461;-68
2022/04/06 04:12:59;;;;;;;20.10;12.00;;;8.40;99.90;;;;;;5039595;28;20456;-68
2022/04/06 04:15:47;;;;;;;15.27;12.07;;;8.40;99.90;;;;;;5041327;28;20455;-68
2022/04/06 04:18:36;;;;;;;15.70;12.00;;;8.40;99.90;;;;;;5038805;28;20462;-68
2022/04/06 04:21:33;;;;;;;20.83;14.70;;;8.40;99.90;;;;;;5040319;28;20931;-68
2022/04/06 04:24:21;;;;;;;18.90;14.13;;;8.40;99.90;;;;;;5039127;28;20542;-68
2022/04/06 04:27:10;;;;;;;21.43;14.40;;;8.40;99.90;;;;;;5038305;28;20615;-68
2022/04/06 04:30:00;;;;;;;19.80;15.60;;;8.40;99.90;;;;;;5039254;28;20604;-68
2022/04/06 04:32:54;;;;;;;20.00;14.73;;;8.40;99.90;;;;;;5040643;28;20468;-68
2022/04/06 04:35:43;;;;;;;20.80;15.63;;;8.40;99.90;;;;;;5043469;28;20564;-68
2022/04/06 04:38:31;;;;;;;19.30;14.93;;;8.50;99.90;;;;;;5037637;28;20462;-68
2022/04/06 04:41:19;;;;;;;23.87;17.20;;;8.50;99.90;;;;;;5039945;28;20470;-67
2022/04/06 04:44:07;;;;;;;19.73;16.17;;;8.50;99.90;;;;;;5039952;28;20446;-68
2022/04/06 04:46:57;;;;;;;27.13;18.00;;;8.50;99.90;;;;;;5034318;28;20520;-68
2022/04/06 04:49:45;;;;;;;24.33;18.57;;;8.50;99.90;;;;;;5040287;28;20443;-68
2022/04/06 04:52:33;;;;;;;25.00;18.40;;;8.50;99.90;;;;;;5038778;28;20489;-68
2022/04/06 04:55:21;;;;;;;24.83;19.23;;;8.50;99.90;;;;;;5047349;28;20798;-68
2022/04/06 04:58:10;;;;;;;24.70;19.10;;;8.50;99.90;;;;;;5048105;28;20469;-68
2022/04/06 05:00:58;;;;;;;25.17;20.30;;;8.60;99.90;;;;;;5040691;28;20458;-68
2022/04/06 05:03:48;;;;;;;27.43;21.87;;;8.50;99.90;;;;;;5033000;28;20573;-67
2022/04/06 05:06:38;;;;;;;28.60;22.60;;;8.50;99.90;;;;;;5031129;28;20474;-66
2022/04/06 05:09:26;;;;;;;31.50;22.83;;;8.50;99.90;;;;;;5041436;28;20455;-67
2022/04/06 05:12:14;;;;;;;30.70;22.40;;;8.50;99.90;;;;;;5045879;28;20725;-68
2022/04/06 05:15:04;;;;;;;33.03;23.47;;;8.50;99.90;;;;;;5022909;28;20985;-67
2022/04/06 05:17:52;;;;;;;29.93;24.17;;;8.50;99.90;;;;;;5037673;28;20575;-68
2022/04/06 05:20:41;;;;;;;29.33;24.60;;;8.50;99.90;;;;;;5036080;28;20980;-67
2022/04/06 05:23:29;;;;;;;30.77;26.30;;;8.60;99.90;;;;;;5039191;28;20455;-68
2022/04/06 05:26:18;;;;;;;31.57;25.47;;;8.60;99.90;;;;;;5025245;28;20471;-67
2022/04/06 05:29:06;;;;;;;33.60;26.00;;;8.70;99.90;;;;;;5049773;28;20917;-67
2022/04/06 05:31:54;;;;;;;32.40;26.93;;;8.70;99.90;;;;;;5032570;28;20557;-67
2022/04/06 05:34:42;;;;;;;34.13;26.03;;;8.70;99.90;;;;;;5026601;28;20492;-67
2022/04/06 05:37:34;;;;;;;29.57;25.63;;;8.70;99.90;;;;;;5055815;28;20488;-67
2022/04/06 05:40:22;;;;;;;30.80;25.30;;;8.70;99.90;;;;;;5053847;28;20469;-67
2022/04/06 05:43:10;;;;;;;33.90;26.47;;;8.70;99.90;;;;;;5057089;28;20809;-67
2022/04/06 05:45:59;;;;;;;29.30;24.50;;;8.70;99.90;;;;;;5055766;28;20559;-67
2022/04/06 05:48:47;;;;;;;31.30;25.03;;;8.80;99.90;;;;;;5047768;28;20473;-67
2022/04/06 05:51:35;;;;;;;35.20;24.40;;;8.70;99.90;;;;;;5059740;28;20557;-67
2022/04/06 05:54:25;;;;;;;29.57;24.20;;;8.80;99.90;;;;;;5057097;28;20487;-67
2022/04/06 05:57:13;;;;;;;26.77;21.53;;;8.70;99.90;;;;;;5054734;28;22093;-67
2022/04/06 06:00:01;;;;;;;27.33;22.00;;;8.80;99.90;;;;;;5059214;28;20457;-67
2022/04/06 06:02:51;;;;;;;25.90;19.70;;;8.80;99.90;;;;;;5060038;28;21243;-68
2022/04/06 06:05:39;;;;;;;28.00;20.60;;;8.80;99.90;;;;;;5056711;28;20580;-68
2022/04/06 06:08:38;;;;;;;23.13;18.17;;;8.80;99.90;;;;;;5058286;28;20477;-67
2022/04/06 06:11:27;;;;;;;22.20;17.63;;;8.80;99.90;;;;;;5057568;28;20496;-67
2022/04/06 06:14:21;;;;;;;26.20;18.03;;;8.90;99.90;;;;;;5055972;28;20478;-67
2022/04/06 06:17:09;;;;;;;19.90;16.87;;;8.90;99.90;;;;;;5053679;28;20494;-66
2022/04/06 06:19:58;;;;;;;22.53;16.17;;;8.90;99.90;;;;;;5058062;28;20687;-67
2022/04/06 06:22:46;;;;;;;23.20;15.93;;;8.90;99.90;;;;;;5059193;28;20528;-67
2022/04/06 06:25:34;;;;;;;20.03;16.13;;;8.90;99.90;;;;;;5054888;28;20486;-68
2022/04/06 06:28:26;;;;;;;21.17;14.73;;;8.90;99.90;;;;;;5058967;28;20493;-67
2022/04/06 06:31:14;;;;;;;19.60;14.90;;;8.90;99.90;;;;;;5058391;28;20449;-67
2022/04/06 06:34:03;;;;;;;20.13;14.27;;;8.90;99.90;;;;;;5059410;28;20458;-67
2022/04/06 06:36:51;;;;;;;20.67;13.93;;;9.00;99.90;;;;;;5049401;28;20479;-66
2022/04/06 06:39:39;;;;;;;15.80;12.67;;;9.00;99.90;;;;;;5035518;28;20458;-67
2022/04/06 06:42:27;;;;;;;18.57;13.20;;;8.90;99.90;;;;;;5039318;28;20463;-67
2022/04/06 06:45:17;;;;;;;18.07;13.57;;;9.00;99.90;;;;;;5038798;28;20537;-66
2022/04/06 06:48:06;;;;;;;22.27;13.20;;;9.00;99.90;;;;;;5038907;28;20487;-67
2022/04/06 06:50:54;;;;;;;20.10;14.30;;;9.00;99.90;;;;;;5040320;28;20927;-67
2022/04/06 06:53:43;;;;;;;19.27;13.30;;;9.00;99.90;;;;;;5040210;28;20620;-67
2022/04/06 06:56:31;;;;;;;17.13;12.30;;;9.00;99.90;;;;;;5036173;28;20503;-67
2022/04/06 06:59:19;;;;;;;16.77;13.27;;;9.10;99.90;;;;;;5034817;28;21069;-65
2022/04/06 07:02:10;;;;;;;15.17;12.40;;;9.10;99.90;;;;;;5037330;28;20435;-66
2022/04/06 07:04:58;;;;;;;19.43;12.03;;;9.10;99.90;;;;;;5038058;28;20459;-66
2022/04/06 07:07:52;;;;;;;15.97;13.23;;;9.10;99.90;;;;;;5035562;28;20467;-67
2022/04/06 07:10:44;;;;;;;18.90;13.40;;;9.20;99.90;;;;;;5035514;28;20455;-67
2022/04/06 07:13:32;;;;;;;15.23;13.40;;;9.20;99.90;;;;;;5039478;28;20475;-67
2022/04/06 07:16:20;;;;;;;22.43;14.03;;;9.20;99.90;;;;;;5034992;28;20467;-66
2022/04/06 07:19:10;;;;;;;18.07;15.00;;;9.30;99.90;;;;;;5037912;28;20443;-67
2022/04/06 07:21:58;;;;;;;18.87;15.13;;;9.30;99.90;;;;;;5036278;28;20458;-66
2022/04/06 07:24:46;;;;;;;19.90;14.77;;;9.30;99.90;;;;;;5040724;28;20607;-67
2022/04/06 07:27:37;;;;;;;19.00;14.97;;;9.30;99.90;;;;;;5041455;28;20557;-67
2022/04/06 07:30:25;;;;;;;18.93;15.00;;;9.30;99.90;;;;;;5041859;28;20490;-67
2022/04/06 07:33:14;;;;;;;19.50;15.27;;;9.30;99.90;;;;;;5035985;28;20510;-66
2022/04/06 07:36:04;;;;;;;17.83;15.07;;;9.40;99.90;;;;;;5040588;28;20572;-67
2022/04/06 07:38:53;;;;;;;19.80;16.27;;;9.40;99.90;;;;;;5056090;28;20509;-67
2022/04/06 07:41:41;;;;;;;21.83;15.90;;;9.40;99.90;;;;;;5057513;28;20451;-67
2022/04/06 07:44:29;;;;;;;22.20;16.97;;;9.40;99.90;;;;;;5059548;28;20532;-66
2022/04/06 07:47:17;;;;;;;20.27;16.20;;;9.40;99.90;;;;;;5057221;28;20524;-66
2022/04/06 07:50:06;;;;;;;23.13;17.40;;;9.30;99.90;;;;;;5056840;28;20519;-66
2022/04/06 07:52:56;;;;;;;19.63;15.30;;;9.40;99.90;;;;;;5059044;28;20536;-67
2022/04/06 07:55:46;;;;;;;20.50;15.70;;;9.40;99.90;;;;;;5056521;28;20578;-67
2022/04/06 07:58:35;;;;;;;19.50;16.47;;;9.40;99.90;;;;;;5055104;28;20458;-66
2022/04/06 08:01:23;;;;;;;19.93;15.80;;;9.40;99.90;;;;;;5060246;28;21314;-67
2022/04/06 08:04:12;;;;;;;21.07;16.17;;;9.40;99.90;;;;;;5057872;28;20571;-67
2022/04/06 08:07:00;;;;;;;21.43;16.63;;;9.30;99.90;;;;;;5058711;28;20470;-66
2022/04/06 08:09:49;;;;;;;20.33;16.37;;;9.30;99.90;;;;;;5060014;28;20588;-67
2022/04/06 08:12:38;;;;;;;18.23;15.90;;;9.30;99.90;;;;;;5060049;28;20501;-68
2022/04/06 08:15:27;;;;;;;24.80;17.33;;;9.30;99.90;;;;;;5055216;28;20461;-67
2022/04/06 08:18:15;;;;;;;19.43;17.37;;;9.40;99.90;;;;;;5058877;28;20442;-67
2022/04/06 08:21:05;;;;;;;21.80;16.03;;;9.40;99.90;;;;;;5057709;28;20509;-66
2022/04/06 08:23:53;;;;;;;19.30;16.27;;;9.40;99.90;;;;;;5056704;28;20564;-67
2022/04/06 08:26:43;;;;;;;21.40;16.10;;;9.40;99.90;;;;;;5056523;28;20485;-67
2022/04/06 08:29:31;;;;;;;19.67;15.70;;;9.50;99.90;;;;;;5064986;28;20478;-66
2022/04/06 08:32:19;;;;;;;20.37;15.70;;;9.50;99.90;;;;;;5067364;28;20449;-66
2022/04/06 08:35:09;;;;;;;19.33;16.07;;;9.50;99.90;;;;;;5053428;28;20542;-67
2022/04/06 08:37:57;;;;;;;18.40;15.13;;;9.50;99.90;;;;;;5042813;23;20598;-68
2022/04/06 08:40:47;;;;;;;23.63;16.57;;;9.50;99.90;;;;;;5019919;28;20451;-68
2022/04/06 08:43:37;;;;;;;17.50;15.37;;;9.50;99.90;;;;;;5022961;28;20488;-68
2022/04/06 08:46:26;;;;;;;18.50;14.57;;;9.50;99.90;;;;;;5017482;28;20448;-69
2022/04/06 08:49:16;;;;;;;18.70;15.30;;;9.60;99.90;;;;;;5036674;28;20831;-68
2022/04/06 08:52:05;;;;;;;16.17;14.17;;;9.60;99.90;;;;;;5037193;28;20473;-68
2022/04/06 08:54:53;;;;;;;16.27;14.57;;;9.60;99.90;;;;;;5034409;28;20974;-68
2022/04/06 08:57:42;;;;;;;18.20;14.90;;;9.60;99.90;;;;;;5038471;28;20479;-68
2022/04/06 09:00:32;;;;;;;19.80;15.57;;;9.60;99.90;;;;;;5032676;28;20586;-68
2022/04/06 09:03:22;;;;;;;16.67;13.73;;;9.70;99.90;;;;;;5059744;28;20554;-68
2022/04/06 09:06:13;;;;;;;17.83;13.60;;;9.70;99.90;;;;;;5056722;28;20809;-69
2022/04/06 09:09:01;;;;;;;15.80;14.10;;;9.70;99.90;;;;;;5059946;28;20498;-68
2022/04/06 09:11:49;;;;;;;15.23;12.73;;;9.70;99.90;;;;;;5058796;28;20678;-68
2022/04/06 09:14:38;;;;;;;14.93;13.07;;;9.70;99.90;;;;;;5062070;28;20466;-68
2022/04/06 09:17:28;;;;;;;14.80;12.63;;;9.70;99.90;;;;;;5060145;28;20476;-68
2022/04/06 09:20:18;;;;;;;14.17;12.60;;;9.70;99.90;;;;;;5057704;28;21033;-68
2022/04/06 09:23:08;;;;;;;15.17;12.00;;;9.70;99.90;;;;;;5062880;28;20487;-68
2022/04/06 09:26:03;;;;;;;12.30;11.17;;;9.80;99.90;;;;;;5063046;28;20460;-68
2022/04/06 09:28:52;;;;;;;13.30;11.33;;;9.70;99.90;;;;;;5054783;28;20470;-68
2022/04/06 09:31:41;;;;;;;12.73;11.53;;;9.70;99.90;;;;;;5060615;28;20488;-68
2022/04/06 09:34:33;;;;;;;14.63;12.40;;;9.80;99.90;;;;;;5063210;28;20472;-68
2022/04/06 09:37:25;;;;;;;16.03;12.73;;;9.70;99.90;;;;;;5054234;28;20486;-68
2022/04/06 09:40:14;;;;;;;16.90;12.17;;;9.70;99.90;;;;;;5052656;28;20447;-68
2022/04/06 09:43:03;;;;;;;13.60;12.30;;;9.60;99.90;;;;;;5055297;28;20457;-68
2022/04/06 09:48:57;;;;;;;15.20;12.90;;;9.60;99.90;;;;;;5053435;28;20506;-67
2022/04/06 09:51:50;;;;;;;16.40;12.20;;;9.60;99.90;;;;;;5055892;28;20563;-68
2022/04/06 09:54:41;;;;;;;16.77;12.30;;;9.60;99.90;;;;;;5061926;28;20476;-68
2022/04/06 09:57:29;;;;;;;11.63;10.53;;;9.60;99.90;;;;;;5058676;28;20469;-68
2022/04/06 10:00:20;;;;;;;14.03;11.73;;;9.60;99.90;;;;;;5053889;28;20465;-68
2022/04/06 10:03:10;;;;;;;11.37;10.17;;;9.60;99.90;;;;;;5048754;28;20974;-68
2022/04/06 10:06:00;;;;;;;12.37;10.57;;;9.60;99.90;;;;;;5051366;28;22097;-69
2022/04/06 10:08:50;;;;;;;10.53;9.63;;;9.50;99.90;;;;;;5054573;28;20516;-68
2022/04/06 10:11:40;;;;;;;11.23;10.23;;;9.50;99.90;;;;;;4992379;28;20480;-68
2022/04/06 10:14:30;;;;;;;12.43;10.50;;;9.60;99.90;;;;;;4990633;28;20467;-68
2022/04/06 10:17:19;;;;;;;12.40;10.80;;;9.50;99.90;;;;;;4991419;28;20480;-68
2022/04/06 10:20:13;;;;;;;12.37;11.07;;;9.60;99.90;;;;;;4993206;28;20594;-68
2022/04/06 10:23:11;;;;;;;14.57;11.73;;;9.50;99.90;;;;;;4996551;28;20456;-68
2022/04/06 10:26:34;;;;;;;13.00;11.70;;;9.50;99.90;;;;;;4993832;28;20487;-68
2022/04/06 10:29:22;;;;;;;15.60;11.17;;;9.50;99.90;;;;;;5023889;28;20450;-68
2022/04/06 10:32:35;;;;;;;13.30;11.90;;;9.50;99.90;;;;;;5054191;28;20552;-68
2022/04/06 10:35:25;;;;;;;11.77;10.00;;;9.50;99.90;;;;;;5056416;28;20529;-68
2022/04/06 10:38:19;;;;;;;11.70;10.50;;;9.50;99.90;;;;;;5055635;28;20490;-69
2022/04/06 10:41:08;;;;;;;12.40;11.10;;;9.50;99.90;;;;;;5048301;28;20842;-68
2022/04/06 10:44:38;;;;;;;11.80;10.70;;;9.50;99.90;;;;;;5050614;28;20460;-68
2022/04/06 10:47:29;;;;;;;11.43;10.23;;;9.50;99.90;;;;;;5058457;28;20857;-69
2022/04/06 10:50:23;;;;;;;11.40;10.30;;;9.50;99.90;;;;;;5052731;28;20481;-68
2022/04/06 10:53:29;;;;;;;12.77;11.57;;;9.50;99.90;;;;;;5055061;28;20438;-68
2022/04/06 10:56:17;;;;;;;12.50;11.27;;;9.50;99.90;;;;;;5047072;28;20457;-68
2022/04/06 10:59:09;;;;;;;12.37;11.07;;;9.50;99.90;;;;;;5051325;28;20461;-68
2022/04/06 11:02:18;;;;;;;12.20;11.10;;;9.50;99.90;;;;;;5048611;28;20442;-68
2022/04/06 11:05:09;;;;;;;13.23;11.30;;;9.50;99.90;;;;;;5050707;28;20449;-68
2022/04/06 11:11:38;;;;;;;12.40;11.07;;;9.50;99.90;;;;;;5048899;28;20514;-68
2022/04/06 11:14:29;;;;;;;13.43;11.60;;;9.50;99.90;;;;;;5045998;28;20470;-68
2022/04/06 11:17:41;;;;;;;12.73;11.53;;;9.50;99.90;;;;;;5046566;28;20477;-68
2022/04/06 11:20:33;;;;;;;10.67;9.70;;;9.50;99.90;;;;;;5037399;28;20449;-67
2022/04/06 11:23:21;;;;;;;13.70;10.53;;;9.50;99.90;;;;;;5041496;28;20450;-68
2022/04/06 11:26:10;;;;;;;12.53;11.10;;;9.50;99.90;;;;;;5043220;28;20519;-68
2022/04/06 11:28:59;;;;;;;11.73;10.40;;;9.60;99.90;;;;;;5059883;28;21350;-68
2022/04/06 11:31:58;;;;;;;11.33;9.53;;;9.60;99.90;;;;;;5058217;28;20616;-68
2022/04/06 11:34:47;;;;;;;11.40;10.20;;;9.60;99.90;;;;;;5065494;28;20446;-68
2022/04/06 11:37:43;;;;;;;11.00;10.00;;;9.60;99.90;;;;;;5063150;28;20481;-67
2022/04/06 11:40:32;;;;;;;11.80;10.50;;;9.60;99.90;;;;;;5054717;28;20445;-68
2022/04/06 11:43:20;;;;;;;11.43;10.33;;;9.60;99.90;;;;;;5050079;28;20454;-68
2022/04/06 11:46:09;;;;;;;12.47;11.17;;;9.70;99.90;;;;;;5035208;28;20458;-68
2022/04/06 11:48:57;;;;;;;11.77;10.67;;;9.70;99.90;;;;;;5050117;28;20456;-68
2022/04/06 11:51:47;;;;;;;11.40;10.30;;;9.80;99.90;;;;;;5047098;28;20470;-69
2022/04/06 11:54:35;;;;;;;11.83;10.63;;;9.80;99.90;;;;;;5046882;28;20498;-69
2022/04/06 11:57:34;;;;;;;12.30;10.10;;;9.90;99.90;;;;;;5047288;28;21447;-68
2022/04/06 12:00:22;;;;;;;11.77;9.70;;;9.90;99.90;;;;;;5040859;28;20544;-68
2022/04/06 12:03:10;;;;;;;15.00;10.50;;;9.90;99.90;;;;;;5039419;28;20445;-67
2022/04/06 12:05:59;;;;;;;12.30;11.00;;;9.90;99.90;;;;;;5039333;28;20472;-68
2022/04/06 12:08:49;;;;;;;11.37;9.90;;;10.00;99.90;;;;;;5050385;28;20454;-68
2022/04/06 12:11:39;;;;;;;12.90;10.13;;;10.00;99.90;;;;;;5048110;28;20937;-68
2022/04/06 12:14:27;;;;;;;17.67;11.00;;;10.00;99.90;;;;;;5048288;28;20482;-68
2022/04/06 12:17:16;;;;;;;11.40;10.20;;;10.00;99.90;;;;;;5060248;28;20473;-73
2022/04/06 12:20:23;;;;;;;13.93;11.70;;;10.00;99.90;;;;;;5060666;28;20454;-72
2022/04/06 12:23:11;;;;;;;19.50;11.30;;;9.90;99.90;;;;;;5065564;28;20471;-68
2022/04/06 12:26:09;;;;;;;11.90;10.70;;;9.80;99.90;;;;;;5040131;28;20690;-68
2022/04/06 12:28:59;;;;;;;12.60;10.73;;;9.80;99.90;;;;;;5043238;28;20537;-69
2022/04/06 12:31:48;;;;;;;10.97;8.87;;;9.80;99.90;;;;;;5049922;28;20857;-68
2022/04/06 12:34:40;;;;;;;13.50;11.33;;;9.80;99.90;;;;;;5045009;28;22322;-69
2022/04/06 12:37:32;;;;;;;12.83;10.33;;;9.80;99.90;;;;;;5041333;28;20485;-68
2022/04/06 12:40:23;;;;;;;15.53;11.47;;;9.80;99.90;;;;;;5047061;28;20451;-68
2022/04/06 12:43:24;;;;;;;13.40;11.00;;;9.80;99.90;;;;;;5042880;28;20909;-66
2022/04/06 12:46:14;;;;;;;12.87;11.07;;;9.80;99.90;;;;;;5035717;28;20817;-66
2022/04/06 12:49:18;;;;;;;13.87;11.57;;;9.80;99.90;;;;;;5049468;28;20485;-67
2022/04/06 12:52:15;;;;;;;15.40;11.20;;;9.90;99.90;;;;;;5043517;28;21057;-66
2022/04/06 12:55:06;;;;;;;14.87;12.00;;;10.10;99.90;;;;;;5038259;28;20446;-67
2022/04/06 12:58:14;;;;;;;12.97;11.13;;;10.20;99.90;;;;;;5041218;28;20496;-67
2022/04/06 13:01:09;;;;;;;14.43;11.70;;;10.30;99.90;;;;;;5041925;28;20847;-68
2022/04/06 13:03:58;;;;;;;15.80;11.17;;;10.30;99.90;;;;;;5034401;28;24125;-69
2022/04/06 13:06:46;;;;;;;15.47;11.07;;;10.30;99.90;;;;;;5035899;28;21106;-67
2022/04/06 13:09:34;;;;;;;14.97;11.27;;;10.30;99.90;;;;;;5039176;28;20545;-67
2022/04/06 13:12:25;;;;;;;18.03;11.20;;;10.30;99.90;;;;;;5051545;28;20803;-67
2022/04/06 13:15:15;;;;;;;17.17;9.20;;;10.30;99.90;;;;;;5047110;28;20970;-68
2022/04/06 13:18:07;;;;;;;13.17;9.77;;;10.30;99.90;;;;;;5044284;28;20466;-68
2022/04/06 13:20:55;;;;;;;10.60;9.50;;;10.20;99.90;;;;;;5049766;28;20501;-67
2022/04/06 13:23:43;;;;;;;11.40;10.20;;;10.20;99.90;;;;;;5050624;28;20540;-68
2022/04/06 13:26:31;;;;;;;11.30;10.13;;;10.20;99.90;;;;;;5047731;28;20610;-69
2022/04/06 13:29:20;;;;;;;10.80;9.30;;;10.20;99.90;;;;;;5035259;28;20550;-68
2022/04/06 13:32:08;;;;;;;13.43;10.10;;;10.20;99.90;;;;;;5049364;28;20473;-68
2022/04/06 13:35:00;;;;;;;10.70;9.70;;;10.20;99.90;;;;;;5049157;28;20446;-68
2022/04/06 13:37:48;;;;;;;11.53;9.50;;;10.20;99.90;;;;;;5043853;28;20851;-67
2022/04/06 13:40:36;;;;;;;11.20;10.03;;;10.20;99.90;;;;;;5039624;28;21778;-67
2022/04/06 13:43:25;;;;;;;10.40;9.30;;;10.20;99.90;;;;;;5051010;28;20453;-67
2022/04/06 13:46:14;;;;;;;11.13;9.93;;;10.10;99.90;;;;;;5054653;28;20450;-67
2022/04/06 13:49:02;;;;;;;12.60;10.07;;;10.10;99.90;;;;;;5047731;28;20932;-67
2022/04/06 13:51:54;;;;;;;11.83;9.60;;;10.10;99.90;;;;;;5055408;28;20489;-67
2022/04/06 13:54:42;;;;;;;15.50;9.73;;;10.00;99.90;;;;;;5047280;28;20529;-67
2022/04/06 13:57:30;;;;;;;10.50;9.20;;;10.00;99.90;;;;;;5048236;28;20474;-67
2022/04/06 14:00:19;;;;;;;11.53;9.20;;;10.00;99.90;;;;;;5045018;28;20851;-73
2022/04/06 14:03:07;;;;;;;10.40;9.40;;;9.90;99.90;;;;;;5041728;28;20458;-72
2022/04/06 14:05:55;;;;;;;9.83;8.50;;;9.90;99.90;;;;;;5042536;28;20961;-67
2022/04/06 14:08:45;;;;;;;12.30;9.47;;;9.80;99.90;;;;;;5041101;28;20465;-67
2022/04/06 14:11:33;;;;;;;10.20;8.97;;;9.80;99.90;;;;;;5041684;28;20919;-67
2022/04/06 14:14:26;;;;;;;10.47;9.37;;;9.80;99.90;;;;;;5039203;28;21000;-71
2022/04/06 14:17:15;;;;;;;10.20;8.90;;;9.80;99.90;;;;;;5046790;28;20515;-71
2022/04/06 14:20:04;;;;;;;9.40;8.50;;;9.80;99.90;;;;;;5047980;28;20455;-72
2022/04/06 14:22:52;;;;;;;9.30;8.40;;;9.80;99.90;;;;;;5048206;28;20584;-72
2022/04/06 14:25:43;;;;;;;11.23;9.90;;;9.70;99.90;;;;;;5033881;28;20460;-67
2022/04/06 14:28:31;;;;;;;10.10;8.50;;;9.70;99.90;;;;;;5037815;28;20513;-67
2022/04/06 14:31:19;;;;;;;12.33;9.57;;;9.60;99.90;;;;;;5030125;28;20540;-67
2022/04/06 14:34:09;;;;;;;11.37;10.20;;;9.60;99.90;;;;;;5048864;28;20459;-67
2022/04/06 14:37:03;;;;;;;10.23;9.20;;;9.60;99.90;;;;;;5044584;28;21013;-67
2022/04/06 14:39:51;;;;;;;11.70;8.80;;;9.60;99.90;;;;;;5062658;28;20449;-68
2022/04/06 14:42:46;;;;;;;9.07;8.17;;;9.60;99.90;;;;;;5056860;28;20455;-68
2022/04/06 14:45:34;;;;;;;8.13;7.33;;;9.50;99.90;;;;;;5048429;28;20469;-69
2022/04/06 14:48:23;;;;;;;9.70;8.70;;;9.50;99.90;;;;;;5047927;28;20474;-68
2022/04/06 14:51:11;;;;;;;11.47;8.60;;;9.50;99.90;;;;;;5055534;28;20511;-69